Time;durP1;ratioP1;P1;durP2;ratioP2;P2;SDS_P1;SDS_P2;PMS_P1;PMS_P2;Temp;Humidity;BMP_temperature;BMP_pressure;BME280_temperature;BME280_humidity;BME280_pressure;Samples;Min_cycle;Max_cycle;Signal;HPM_P1;HPM_P2
2022/01/19 00:01:04;;;;;;;34.92;14.43;;;;;;;4.37;73.48;102179.88;8170611;35;20207;-76
2022/01/19 00:06:09;;;;;;;31.80;13.70;;;;;;;4.18;73.92;102172.34;8170894;35;20148;-76
2022/01/19 00:11:12;;;;;;;28.83;12.27;;;;;;;4.13;74.09;102182.25;8171120;35;20626;-76
2022/01/19 00:16:16;;;;;;;32.00;13.15;;;;;;;4.10;74.25;102189.44;8170706;35;20160;-76
2022/01/19 00:21:20;;;;;;;33.30;12.73;;;;;;;4.03;74.37;102169.22;8174464;35;20188;-76
2022/01/19 00:26:23;;;;;;;31.58;13.50;;;;;;;3.97;74.74;102148.97;8175969;35;20573;-76
2022/01/19 00:31:26;;;;;;;35.40;16.60;;;;;;;3.79;74.74;102109.56;8175160;35;21258;-76
2022/01/19 00:36:31;;;;;;;33.15;16.33;;;;;;;3.63;75.13;102086.00;8175212;35;21048;-76
2022/01/19 00:41:34;;;;;;;27.63;14.70;;;;;;;3.54;75.49;102080.03;8194179;35;20283;-76
2022/01/19 00:46:37;;;;;;;27.50;14.50;;;;;;;3.46;75.70;102069.63;8192534;35;20255;-76
2022/01/19 00:51:41;;;;;;;28.75;13.07;;;;;;;3.42;75.73;102057.31;8172749;35;20242;-76
2022/01/19 00:56:44;;;;;;;25.10;11.55;;;;;;;3.33;75.56;102065.50;8191765;35;20945;-76
2022/01/19 01:01:47;;;;;;;35.33;15.23;;;;;;;3.10;76.10;102064.28;8172384;35;20148;-76
2022/01/19 01:06:52;;;;;;;25.63;12.70;;;;;;;2.94;76.39;102065.53;8192739;35;20191;-75
2022/01/19 01:12:01;;;;;;;30.50;11.90;;;;;;;2.97;77.08;102065.47;8170905;35;21123;-75
2022/01/19 01:17:14;;;;;;;23.60;11.75;;;;;;;3.00;76.96;102052.13;8172599;35;20714;-75
2022/01/19 01:22:18;;;;;;;21.13;11.13;;;;;;;2.95;77.09;102054.88;8191719;35;20468;-75
2022/01/19 01:27:21;;;;;;;28.08;11.13;;;;;;;2.92;77.19;102054.94;8170679;35;20176;-75
2022/01/19 01:32:25;;;;;;;21.73;10.65;;;;;;;2.92;77.18;102038.13;8177059;35;20188;-75
2022/01/19 01:37:29;;;;;;;28.50;13.23;;;;;;;2.88;77.16;102020.53;8181169;35;20188;-75
2022/01/19 01:42:34;;;;;;;25.65;10.88;;;;;;;2.79;77.19;102006.56;8179893;35;20152;-75
2022/01/19 01:47:42;;;;;;;26.52;11.38;;;;;;;2.71;77.42;101986.41;8193171;35;20196;-75
2022/01/19 01:58:07;;;;;;;28.65;11.80;;;;;;;2.53;77.29;101993.88;8170247;35;20553;-75
2022/01/19 02:03:12;;;;;;;22.38;11.77;;;;;;;2.42;77.54;101992.34;8170577;35;20476;-79
2022/01/19 02:08:20;;;;;;;26.50;11.57;;;;;;;2.29;78.10;101997.88;8170820;35;20342;-76
2022/01/19 02:24:16;;;;;;;23.65;10.75;;;;;;;2.07;78.58;101933.81;8147392;35;20678;-76
2022/01/19 02:29:47;;;;;;;27.27;11.38;;;;;;;2.04;78.39;101910.03;8190210;35;20195;-76
2022/01/19 02:40:14;;;;;;;26.05;12.45;;;;;;;1.62;78.22;101874.69;8188602;35;20191;-75
2022/01/19 02:50:39;;;;;;;22.88;10.20;;;;;;;1.37;79.14;101847.81;8170469;35;21016;-76
2022/01/19 02:55:45;;;;;;;26.70;11.68;;;;;;;1.31;78.97;101837.34;8169767;35;20155;-75
2022/01/19 03:08:42;;;;;;;26.45;12.00;;;;;;;1.26;79.64;101818.88;8189732;35;21602;-76
2022/01/19 03:11:56;;;;;;;25.90;11.38;;;;;;;1.23;79.66;101793.34;8189022;35;20201;-75
2022/01/19 03:16:59;;;;;;;24.40;12.32;;;;;;;1.21;80.02;101787.22;8168729;35;20152;-75
2022/01/19 03:22:03;;;;;;;24.40;11.68;;;;;;;1.20;80.04;101782.81;8168825;35;20720;-76
2022/01/19 03:27:08;;;;;;;25.45;13.90;;;;;;;1.17;79.97;101776.72;8168146;35;20187;-75
2022/01/19 03:32:30;;;;;;;28.90;12.07;;;;;;;1.17;80.28;101774.06;8167373;35;20920;-75
2022/01/19 03:37:34;;;;;;;27.90;12.45;;;;;;;1.13;80.47;101775.91;8188594;35;20188;-77
2022/01/19 03:42:39;;;;;;;32.42;12.25;;;;;;;1.06;80.51;101769.84;8189773;35;20156;-76
2022/01/19 03:47:48;;;;;;;25.02;12.60;;;;;;;1.02;80.10;101767.31;8167769;35;20188;-75
2022/01/19 03:52:51;;;;;;;25.67;12.30;;;;;;;1.09;80.16;101752.16;8189473;35;20199;-76
2022/01/19 03:57:55;;;;;;;25.10;12.50;;;;;;;0.97;80.08;101742.72;8192029;35;20234;-74
2022/01/19 04:02:58;;;;;;;27.75;13.45;;;;;;;0.83;80.27;101740.31;8192003;35;20156;-76
2022/01/19 04:08:01;;;;;;;26.13;12.32;;;;;;;0.17;81.40;101754.69;8173560;35;20187;-77
2022/01/19 04:13:24;;;;;;;26.38;12.80;;;;;;;-0.04;81.67;101752.38;8193556;35;20226;-74
2022/01/19 04:18:27;;;;;;;29.83;12.88;;;;;;;0.06;81.33;101751.34;8191826;35;20192;-75
2022/01/19 04:23:30;;;;;;;28.67;13.35;;;;;;;0.17;81.85;101742.34;8191804;35;20290;-77
2022/01/19 04:28:37;;;;;;;36.50;16.50;;;;;;;0.34;82.23;101712.13;8191321;35;20199;-78
2022/01/19 04:33:44;;;;;;;28.25;14.15;;;;;;;0.37;81.95;101714.72;8193034;35;20866;-76
2022/01/19 04:39:22;;;;;;;27.57;14.87;;;;;;;0.27;82.15;101695.47;8192018;35;20188;-74
2022/01/19 04:44:53;;;;;;;29.77;14.65;;;;;;;0.35;82.29;101690.06;8171238;35;20235;-77
2022/01/19 05:06:12;;;;;;;27.52;13.73;;;;;;;0.44;82.38;101646.72;8171419;35;20235;-75
2022/01/19 05:16:38;;;;;;;31.35;14.20;;;;;;;0.48;81.51;101643.13;8190913;35;20473;-76
2022/01/19 05:21:41;;;;;;;23.83;12.70;;;;;;;0.43;81.29;101623.84;8171403;35;20698;-76
2022/01/19 05:26:47;;;;;;;26.80;12.55;;;;;;;0.30;81.53;101605.59;8171398;35;20227;-75
2022/01/19 05:32:00;;;;;;;19.42;10.95;;;;;;;0.31;81.24;101612.59;8190631;35;20756;-74
2022/01/19 05:37:04;;;;;;;21.38;11.10;;;;;;;0.32;81.32;101597.59;8190527;35;20191;-75
2022/01/19 05:42:14;;;;;;;21.13;10.70;;;;;;;0.25;81.12;101599.50;8170315;35;20435;-75
2022/01/19 05:47:19;;;;;;;20.52;10.23;;;;;;;0.30;81.14;101586.19;8169157;35;20247;-75
2022/01/19 05:52:23;;;;;;;17.90;9.35;;;;;;;0.32;80.71;101571.16;8189521;35;20248;-75
2022/01/19 05:57:26;;;;;;;15.90;9.43;;;;;;;0.31;80.46;101569.44;8189308;35;20158;-75
2022/01/19 06:02:31;;;;;;;18.00;9.98;;;;;;;0.36;81.05;101559.66;8189704;35;20163;-76
2022/01/19 06:07:41;;;;;;;16.20;9.57;;;;;;;0.42;81.53;101556.00;8189965;35;21032;-75
2022/01/19 06:13:03;;;;;;;17.20;8.70;;;;;;;0.41;81.29;101544.53;8189218;35;20183;-75
2022/01/19 06:18:07;;;;;;;15.23;8.68;;;;;;;0.33;82.21;101536.78;8188518;35;20195;-76
2022/01/19 06:23:10;;;;;;;15.45;8.45;;;;;;;0.41;81.66;101523.38;8169717;35;20945;-74
2022/01/19 06:28:34;;;;;;;17.53;9.00;;;;;;;0.33;82.12;101522.69;8169515;35;20812;-76
2022/01/19 06:33:38;;;;;;;14.13;8.55;;;;;;;0.46;81.66;101503.00;8168379;35;20548;-77
2022/01/19 06:38:43;;;;;;;16.23;10.13;;;;;;;0.40;81.55;101513.72;8189941;35;20271;-74
2022/01/19 06:43:59;;;;;;;15.43;7.95;;;;;;;0.36;81.97;101515.56;8189124;35;20211;-76
2022/01/19 06:49:03;;;;;;;16.52;8.40;;;;;;;0.25;82.46;101519.31;8188634;35;20515;-76
2022/01/19 06:54:09;;;;;;;13.27;8.82;;;;;;;0.47;82.21;101509.19;8188467;35;20231;-75
2022/01/19 06:59:13;;;;;;;13.30;8.53;;;;;;;0.57;81.79;101508.06;8167743;35;20585;-77
2022/01/19 07:04:36;;;;;;;15.73;8.98;;;;;;;0.63;81.21;101512.38;8168198;35;20281;-75
2022/01/19 07:09:39;;;;;;;15.15;8.95;;;;;;;0.68;81.35;101492.84;8188643;35;20187;-77
2022/01/19 07:14:43;;;;;;;14.45;8.98;;;;;;;0.69;81.13;101485.81;8187767;35;20199;-75
2022/01/19 07:19:47;;;;;;;15.40;9.32;;;;;;;0.65;80.98;101479.69;8188268;35;20654;-76
2022/01/19 07:24:51;;;;;;;14.45;8.70;;;;;;;0.86;80.41;101475.69;8190898;35;20852;-75
2022/01/19 07:29:54;;;;;;;12.18;8.77;;;;;;;1.09;80.21;101469.84;8172826;35;21046;-76
2022/01/19 07:34:59;;;;;;;15.73;8.82;;;;;;;1.22;79.36;101458.06;8193472;35;20243;-76
2022/01/19 07:40:04;;;;;;;17.90;9.43;;;;;;;1.21;78.96;101450.16;8191332;35;20156;-74
2022/01/19 07:45:08;;;;;;;14.80;8.85;;;;;;;1.00;79.26;101457.72;8170768;35;20187;-75
2022/01/19 07:50:23;;;;;;;16.38;8.77;;;;;;;0.82;79.84;101466.97;8191844;35;20179;-75
2022/01/19 07:55:32;;;;;;;16.17;9.60;;;;;;;1.11;79.34;101483.06;8190636;35;21636;-76
2022/01/19 08:00:54;;;;;;;13.60;8.93;;;;;;;1.20;79.04;101488.13;8165673;35;20228;-77
2022/01/19 08:06:15;;;;;;;15.20;8.98;;;;;;;1.49;78.84;101474.16;8190656;35;20191;-77
2022/01/19 08:11:19;;;;;;;29.65;13.40;;;;;;;1.97;78.54;101472.88;8201655;35;20195;-76
2022/01/19 08:16:26;;;;;;;14.88;9.43;;;;;;;2.16;77.59;101453.75;8204659;35;20294;-75
2022/01/19 08:21:31;;;;;;;12.88;9.27;;;;;;;1.90;76.67;101453.63;8174164;35;20179;-75
2022/01/19 08:26:37;;;;;;;15.02;9.00;;;;;;;1.71;77.42;101442.66;8169574;35;20698;-77
2022/01/19 08:31:44;;;;;;;15.63;9.18;;;;;;;1.77;77.66;101437.19;8188673;35;20170;-76
2022/01/19 08:37:18;;;;;;;15.32;9.40;;;;;;;1.81;77.86;101437.97;8156920;35;20265;-77
2022/01/19 08:42:33;;;;;;;16.15;9.82;;;;;;;1.58;78.83;101430.66;8190225;35;20234;-76
2022/01/19 08:47:38;;;;;;;14.07;7.63;;;;;;;1.34;79.00;101427.75;8189412;35;20629;-76
2022/01/19 08:52:43;;;;;;;17.73;9.70;;;;;;;1.68;78.74;101427.72;8169076;35;20484;-76
2022/01/19 08:57:59;;;;;;;18.33;11.10;;;;;;;1.72;78.97;101409.97;8187976;35;20221;-76
2022/01/19 09:03:02;;;;;;;17.02;10.02;;;;;;;1.62;78.36;101400.50;8170135;35;20534;-76
2022/01/19 09:08:08;;;;;;;15.32;9.95;;;;;;;1.71;78.82;101393.19;8169336;35;20191;-76
2022/01/19 09:13:11;;;;;;;15.35;8.57;;;;;;;1.52;78.79;101391.97;8169254;35;20552;-76
2022/01/19 09:18:14;;;;;;;14.98;10.55;;;;;;;1.64;78.82;101380.16;8184529;35;22694;-76
2022/01/19 09:23:19;;;;;;;16.70;10.40;;;;;;;1.68;78.73;101366.78;8168149;35;20235;-76
2022/01/19 09:28:22;;;;;;;18.73;10.07;;;;;;;1.58;78.89;101367.97;8168638;35;20733;-76
2022/01/19 09:33:25;;;;;;;16.00;10.05;;;;;;;1.71;78.25;101372.00;8168094;35;20251;-76
2022/01/19 09:38:34;;;;;;;15.38;8.15;;;;;;;1.57;78.41;101344.19;8165500;35;20191;-77
2022/01/19 09:43:37;;;;;;;17.38;10.68;;;;;;;2.02;77.23;101339.31;8168024;35;20374;-76
2022/01/19 09:48:41;;;;;;;12.23;8.45;;;;;;;1.82;77.58;101344.34;8187606;35;20661;-76
2022/01/19 09:53:47;;;;;;;14.52;8.75;;;;;;;1.98;76.95;101337.66;8168343;35;20892;-76
2022/01/19 09:58:51;;;;;;;12.18;7.50;;;;;;;1.81;77.40;101331.97;8168768;35;20187;-77
2022/01/19 10:03:54;;;;;;;14.27;9.82;;;;;;;1.92;77.16;101312.22;8169053;35;20801;-76
2022/01/19 10:08:59;;;;;;;15.27;10.55;;;;;;;2.04;76.37;101289.78;8168219;35;20148;-75
2022/01/19 10:19:30;;;;;;;17.40;10.75;;;;;;;2.36;75.53;101293.19;8169416;35;20191;-76
2022/01/19 10:25:00;;;;;;;14.93;9.55;;;;;;;2.45;75.19;101278.75;8169027;35;20148;-75
2022/01/19 10:30:21;;;;;;;16.77;10.20;;;;;;;2.16;75.26;101244.31;8169115;35;20392;-76
2022/01/19 10:35:29;;;;;;;13.05;7.65;;;;;;;2.08;75.11;101242.81;8167739;35;20246;-76
2022/01/19 10:40:36;;;;;;;17.00;9.52;;;;;;;2.38;74.66;101251.56;8167705;35;20761;-76
2022/01/19 10:45:39;;;;;;;14.60;7.60;;;;;;;2.23;74.76;101249.44;8168445;35;20196;-76
2022/01/19 10:50:44;;;;;;;15.40;9.25;;;;;;;2.06;75.77;101234.06;8168528;35;20204;-76
2022/01/19 10:55:48;;;;;;;15.85;10.07;;;;;;;2.27;75.70;101222.75;8167283;35;20470;-76
2022/01/19 11:00:55;;;;;;;14.95;10.00;;;;;;;2.36;75.31;101213.66;8168601;35;20274;-75
2022/01/19 11:06:01;;;;;;;16.75;8.93;;;;;;;2.37;75.08;101215.38;8186320;35;20250;-75
2022/01/19 11:11:08;;;;;;;15.68;10.63;;;;;;;2.42;75.28;101216.09;8166723;35;20302;-77
2022/01/19 11:16:11;;;;;;;15.18;10.35;;;;;;;2.42;75.31;101204.63;8163880;35;20838;-75
2022/01/19 11:21:21;;;;;;;16.33;10.77;;;;;;;1.86;77.21;101201.09;8166559;35;20264;-75
2022/01/19 11:26:30;;;;;;;15.23;8.25;;;;;;;1.99;76.56;101176.88;8166778;35;20254;-75
2022/01/19 11:31:39;;;;;;;17.33;9.85;;;;;;;1.94;76.95;101161.13;8164605;35;21215;-75
2022/01/19 11:36:44;;;;;;;20.15;12.98;;;;;;;2.02;77.02;101147.63;8166548;35;20183;-75
2022/01/19 11:41:54;;;;;;;10.23;6.50;;;;;;;2.00;76.32;101149.44;8167896;35;20553;-77
2022/01/19 11:47:00;;;;;;;18.33;10.35;;;;;;;2.13;76.53;101119.81;8170160;35;20187;-77
2022/01/19 11:52:04;;;;;;;23.77;13.27;;;;;;;2.21;76.93;101108.09;8170115;35;20187;-75
2022/01/19 11:57:22;;;;;;;21.02;12.68;;;;;;;2.41;76.57;101087.03;8168340;35;20241;-75
2022/01/19 12:02:41;;;;;;;26.65;14.43;;;;;;;2.12;77.98;101106.63;8168565;35;20214;-77
2022/01/19 12:08:23;;;;;;;28.67;15.20;;;;;;;2.09;77.90;101086.41;8167430;35;20233;-77
2022/01/19 12:18:56;;;;;;;26.73;14.05;;;;;;;1.78;78.53;101054.78;8169868;35;20187;-77
2022/01/19 12:24:21;;;;;;;26.48;13.02;;;;;;;2.03;78.30;101041.56;8191291;35;20764;-76
2022/01/19 12:29:50;;;;;;;22.17;11.18;;;;;;;1.85;78.56;101043.06;8171496;35;20741;-77
2022/01/19 12:34:56;;;;;;;29.52;13.57;;;;;;;2.08;77.97;101023.69;8171381;35;20198;-76
2022/01/19 12:40:00;;;;;;;31.15;14.68;;;;;;;2.02;78.03;101033.66;8171275;35;20716;-76
2022/01/19 12:45:18;;;;;;;19.25;9.13;;;;;;;2.09;77.82;101001.59;8174828;35;21057;-76
2022/01/19 12:50:46;;;;;;;18.83;8.88;;;;;;;1.76;79.09;101002.78;8169015;35;21378;-76
2022/01/19 12:55:53;;;;;;;28.50;13.50;;;;;;;2.11;78.27;100986.50;8170247;35;20218;-77
2022/01/19 13:01:02;;;;;;;11.57;6.97;;;;;;;1.94;78.32;100992.38;8172783;35;20227;-76
2022/01/19 13:06:09;;;;;;;24.88;12.00;;;;;;;2.17;77.70;100980.13;8173723;35;20136;-77
2022/01/19 13:11:22;;;;;;;25.75;11.07;;;;;;;2.11;77.81;100973.25;8170855;35;20188;-76
2022/01/19 13:16:40;;;;;;;28.00;12.88;;;;;;;2.22;77.80;100959.56;8174346;35;20195;-76
2022/01/19 13:21:50;;;;;;;25.00;13.02;;;;;;;2.24;77.74;100938.31;8170358;35;20183;-77
2022/01/19 13:27:02;;;;;;;31.02;14.38;;;;;;;2.43;76.99;100925.22;8169807;35;20774;-76
2022/01/19 13:32:12;;;;;;;30.48;13.70;;;;;;;2.16;78.23;100920.91;8191005;35;20540;-76
2022/01/19 13:37:15;;;;;;;27.00;12.85;;;;;;;2.09;79.11;100907.97;8172232;35;20892;-76
2022/01/19 13:42:34;;;;;;;24.67;11.18;;;;;;;1.92;79.90;100904.16;8169837;35;20199;-76
2022/01/19 13:48:02;;;;;;;32.10;14.77;;;;;;;1.75;80.64;100893.28;8169621;35;20179;-76
2022/01/19 13:53:05;;;;;;;28.15;11.73;;;;;;;1.94;79.81;100894.34;8169274;35;20709;-76
2022/01/19 13:58:12;;;;;;;28.08;12.93;;;;;;;1.68;81.21;100879.41;8169181;35;20180;-76
2022/01/19 14:03:16;;;;;;;29.02;13.90;;;;;;;1.94;80.56;100885.53;8169648;35;20227;-77
2022/01/19 14:08:29;;;;;;;28.90;12.80;;;;;;;1.64;82.66;100888.38;8169591;35;20202;-76
2022/01/19 14:13:35;;;;;;;33.40;15.45;;;;;;;1.88;81.87;100883.97;8168975;35;20830;-76
2022/01/19 14:18:39;;;;;;;30.63;12.73;;;;;;;1.55;83.23;100888.72;8167446;35;20274;-76
2022/01/19 14:23:58;;;;;;;38.28;16.63;;;;;;;1.61;83.65;100874.38;8168848;35;20192;-76
2022/01/19 14:29:11;;;;;;;37.28;17.77;;;;;;;2.03;82.68;100850.75;8169016;35;22244;-76
2022/01/19 14:34:16;;;;;;;40.20;16.80;;;;;;;1.89;82.96;100830.09;8172002;35;20564;-77
2022/01/19 14:39:19;;;;;;;28.50;13.45;;;;;;;1.86;82.80;100831.97;8176018;35;20205;-77
2022/01/19 14:44:29;;;;;;;27.65;12.13;;;;;;;1.68;83.17;100820.28;8172429;35;20211;-77
2022/01/19 14:49:36;;;;;;;36.38;17.55;;;;;;;1.92;82.69;100802.59;8178081;35;20288;-76
2022/01/19 14:54:40;;;;;;;35.97;17.98;;;;;;;1.99;82.62;100801.44;8168109;35;20159;-77
2022/01/19 14:59:43;;;;;;;46.80;19.45;;;;;;;1.62;83.19;100796.66;8167861;35;20195;-76
2022/01/19 15:04:47;;;;;;;30.52;14.48;;;;;;;1.64;83.16;100781.59;8188280;35;20806;-76
2022/01/19 15:09:50;;;;;;;37.40;18.00;;;;;;;2.06;81.92;100759.69;8169270;35;20517;-76
2022/01/19 15:14:53;;;;;;;33.72;14.93;;;;;;;1.90;81.80;100759.41;8168675;35;20587;-76
2022/01/19 15:19:57;;;;;;;35.28;16.58;;;;;;;1.99;81.27;100736.97;8168851;35;20557;-77
2022/01/19 15:25:01;;;;;;;33.38;16.73;;;;;;;2.08;80.29;100739.25;8168237;35;20867;-77
2022/01/19 15:30:08;;;;;;;41.80;17.20;;;;;;;2.28;79.81;100736.69;8170479;35;20569;-77
2022/01/19 15:35:13;;;;;;;34.03;16.73;;;;;;;2.22;79.63;100734.25;8170574;35;20248;-76
2022/01/19 15:40:17;;;;;;;31.60;14.35;;;;;;;1.79;80.41;100738.63;8167966;35;20440;-77
2022/01/19 15:45:36;;;;;;;37.88;18.63;;;;;;;2.25;79.70;100728.84;8167846;35;20192;-76
2022/01/19 15:50:40;;;;;;;29.58;14.50;;;;;;;1.81;81.49;100742.09;8170940;35;20649;-76
2022/01/19 15:55:44;;;;;;;33.25;16.50;;;;;;;2.23;80.61;100717.44;8171974;35;20277;-76
2022/01/19 16:00:53;;;;;;;34.03;14.23;;;;;;;1.67;82.47;100713.50;8168948;35;20304;-77
2022/01/19 16:05:57;;;;;;;23.65;10.40;;;;;;;1.60;83.40;100717.28;8172098;35;20207;-76
2022/01/19 16:11:01;;;;;;;36.85;16.50;;;;;;;1.65;84.95;100710.03;8170825;35;20187;-76
2022/01/19 16:16:04;;;;;;;38.35;18.40;;;;;;;1.55;85.51;100715.75;8170867;35;20274;-77
2022/01/19 16:21:15;;;;;;;37.08;19.48;;;;;;;1.71;85.24;100709.78;8172479;35;21077;-76
2022/01/19 16:26:18;;;;;;;36.08;14.05;;;;;;;1.35;86.74;100713.84;8189314;35;20330;-76
2022/01/19 16:31:21;;;;;;;22.63;10.43;;;;;;;1.45;86.47;100733.75;8172185;35;20248;-76
2022/01/19 16:36:27;;;;;;;40.40;18.50;;;;;;;1.50;87.07;100730.00;8172275;35;20654;-76
2022/01/19 16:41:32;;;;;;;44.08;21.85;;;;;;;1.72;85.69;100713.28;8170911;35;20950;-76
2022/01/19 16:46:38;;;;;;;47.22;19.75;;;;;;;1.67;85.99;100709.94;8185001;35;20230;-76
2022/01/19 16:51:42;;;;;;;36.47;16.88;;;;;;;1.36;87.37;100727.00;8173668;35;20196;-76
2022/01/19 16:56:47;;;;;;;33.67;13.93;;;;;;;1.34;87.63;100706.81;8167734;35;20969;-78
2022/01/19 17:01:50;;;;;;;27.00;12.30;;;;;;;1.38;87.80;100706.66;8169787;35;20286;-75
2022/01/19 17:06:54;;;;;;;26.17;12.45;;;;;;;1.37;87.37;100706.69;8190269;35;21153;-76
2022/01/19 17:12:00;;;;;;;29.50;14.50;;;;;;;1.39;87.74;100704.88;8189843;35;20152;-76
2022/01/19 17:17:08;;;;;;;41.63;18.83;;;;;;;1.50;88.39;100711.47;8168163;35;20571;-78
2022/01/19 17:22:21;;;;;;;36.47;16.73;;;;;;;1.41;88.56;100716.25;8153423;35;20225;-78
2022/01/19 17:27:25;;;;;;;42.85;19.55;;;;;;;1.36;89.66;100707.63;8120871;35;20192;-76
2022/01/19 17:32:28;;;;;;;44.75;20.40;;;;;;;1.40;90.17;100699.53;8120175;35;20181;-76
2022/01/19 17:37:32;;;;;;;27.90;12.23;;;;;;;1.09;90.89;100702.44;8119186;35;20253;-78
2022/01/19 17:42:35;;;;;;;27.02;13.00;;;;;;;1.08;91.33;100692.78;8118944;35;20531;-76
2022/01/19 17:47:51;;;;;;;28.10;13.23;;;;;;;0.95;92.29;100684.41;8128220;35;20242;-76
2022/01/19 17:52:56;;;;;;;28.85;13.10;;;;;;;1.26;91.47;100678.88;8117933;35;20214;-79
2022/01/19 17:57:59;;;;;;;37.78;20.48;;;;;;;1.40;91.33;100678.34;8121194;35;20832;-76
2022/01/19 18:03:03;;;;;;;30.90;11.25;;;;;;;1.25;91.93;100685.06;8120632;35;20651;-76
2022/01/19 18:08:09;;;;;;;23.45;12.07;;;;;;;1.34;91.74;100680.34;8119108;35;20205;-77
2022/01/19 18:13:12;;;;;;;38.35;18.85;;;;;;;1.61;91.59;100668.69;8119149;35;21884;-77
2022/01/19 18:18:15;;;;;;;37.92;19.63;;;;;;;1.65;91.41;100666.81;8120088;35;20155;-79
2022/01/19 18:23:20;;;;;;;35.17;20.10;;;;;;;1.48;92.39;100670.06;8123954;35;20149;-79
2022/01/19 18:28:23;;;;;;;34.42;18.45;;;;;;;1.71;91.75;100662.09;8124349;35;20454;-80
2022/01/19 18:33:27;;;;;;;41.67;21.13;;;;;;;1.46;92.61;100664.00;8127763;35;20227;-78
2022/01/19 18:38:31;;;;;;;30.45;16.02;;;;;;;1.51;92.38;100667.34;8179876;35;20188;-78
2022/01/19 18:43:35;;;;;;;24.60;11.80;;;;;;;1.62;92.80;100656.31;8172577;35;20771;-78
2022/01/19 18:48:38;;;;;;;30.63;14.10;;;;;;;1.81;91.92;100652.03;8191045;35;20145;-78
2022/01/19 18:53:43;;;;;;;31.90;15.05;;;;;;;1.77;91.79;100655.69;8165271;35;20254;-77
2022/01/19 18:58:46;;;;;;;31.35;14.57;;;;;;;1.65;92.43;100662.38;8169947;35;20215;-77
2022/01/19 19:03:49;;;;;;;33.90;16.65;;;;;;;1.73;92.96;100651.47;8171256;35;20239;-77
2022/01/19 19:08:55;;;;;;;39.47;19.65;;;;;;;1.95;92.06;100643.50;8171762;35;20140;-77
2022/01/19 19:13:59;;;;;;;30.25;14.82;;;;;;;1.56;93.18;100641.53;8171424;35;20171;-77
2022/01/19 19:19:02;;;;;;;32.83;15.60;;;;;;;1.65;93.91;100648.25;8170284;35;20886;-77
2022/01/19 19:24:07;;;;;;;46.95;22.52;;;;;;;1.92;92.54;100655.09;8172500;35;20179;-77
2022/01/19 19:29:10;;;;;;;37.95;18.70;;;;;;;1.75;93.67;100652.25;8174182;35;20485;-77
2022/01/19 19:34:13;;;;;;;47.80;23.80;;;;;;;1.93;93.55;100667.41;8174470;35;21678;-78
2022/01/19 19:39:20;;;;;;;53.17;25.15;;;;;;;1.99;92.60;100673.38;8173146;35;20181;-77
2022/01/19 19:44:23;;;;;;;56.35;26.10;;;;;;;2.17;92.15;100665.53;8171016;35;20630;-76
2022/01/19 19:49:27;;;;;;;55.05;28.60;;;;;;;2.10;92.96;100664.06;8174150;35;20214;-77
2022/01/19 19:54:32;;;;;;;30.95;14.23;;;;;;;2.04;93.45;100661.66;8173020;35;20486;-77
2022/01/19 19:59:35;;;;;;;35.83;17.05;;;;;;;2.00;93.08;100672.44;8173961;35;20191;-76
2022/01/19 20:04:39;;;;;;;38.80;18.15;;;;;;;2.10;93.19;100677.31;8178177;35;20549;-77
2022/01/19 20:09:44;;;;;;;34.70;15.77;;;;;;;2.30;92.53;100686.22;8174558;35;20203;-78
2022/01/19 20:14:47;;;;;;;30.27;14.88;;;;;;;2.12;93.67;100693.16;8178001;35;20246;-78
2022/01/19 20:19:52;;;;;;;37.58;19.65;;;;;;;2.19;93.16;100694.63;8176653;35;20731;-77
2022/01/19 20:24:56;;;;;;;40.58;18.45;;;;;;;2.35;92.44;100695.72;8173113;35;20902;-77
2022/01/19 20:30:00;;;;;;;39.22;18.38;;;;;;;2.29;93.11;100680.06;8175719;35;21514;-78
2022/01/19 20:35:05;;;;;;;33.22;16.83;;;;;;;2.42;92.05;100695.47;8174654;35;20255;-77
2022/01/19 20:40:12;;;;;;;35.65;19.15;;;;;;;2.65;91.59;100691.84;8170383;35;20331;-77
2022/01/19 20:45:15;;;;;;;37.20;17.02;;;;;;;2.50;92.07;100696.00;8174602;35;20334;-76
2022/01/19 20:50:18;;;;;;;31.33;13.30;;;;;;;2.45;92.54;100705.94;8189153;35;20534;-78
2022/01/19 20:55:22;;;;;;;35.13;17.08;;;;;;;2.60;92.18;100716.78;8168977;35;20256;-77
2022/01/19 21:00:27;;;;;;;35.67;19.17;;;;;;;2.66;91.84;100709.50;8176160;35;20137;-77
2022/01/19 21:05:30;;;;;;;29.90;14.55;;;;;;;2.80;90.43;100723.91;8178685;35;20484;-76
2022/01/19 21:10:36;;;;;;;39.17;17.63;;;;;;;2.86;89.61;100727.22;8170721;35;20416;-76
2022/01/19 21:15:40;;;;;;;36.88;18.60;;;;;;;2.81;90.79;100735.38;8170342;35;20170;-76
2022/01/19 21:20:43;;;;;;;35.40;16.15;;;;;;;2.73;90.62;100732.19;8170133;35;20183;-76
2022/01/19 21:25:48;;;;;;;39.63;16.48;;;;;;;2.89;89.66;100737.69;8169804;35;20187;-75
2022/01/19 21:30:51;;;;;;;40.72;14.13;;;;;;;3.01;88.87;100750.41;8188470;35;20984;-76
2022/01/19 21:35:54;;;;;;;36.83;15.88;;;;;;;3.24;88.28;100742.31;8169143;35;20249;-77
2022/01/19 21:41:00;;;;;;;30.77;12.57;;;;;;;3.20;87.67;100750.47;8172051;35;20176;-77
2022/01/19 21:46:03;;;;;;;36.38;12.25;;;;;;;3.26;86.85;100747.53;8170188;35;20200;-76
2022/01/19 21:51:06;;;;;;;33.05;12.65;;;;;;;3.11;87.24;100750.91;8169166;35;20637;-76
2022/01/19 21:56:12;;;;;;;29.05;11.05;;;;;;;3.18;86.80;100749.66;8168970;35;20164;-77
2022/01/19 22:01:15;;;;;;;20.35;8.07;;;;;;;3.37;85.26;100768.31;8169381;35;20203;-77
2022/01/19 22:06:18;;;;;;;21.42;7.45;;;;;;;3.39;84.92;100785.03;8170598;35;20269;-76
2022/01/19 22:11:24;;;;;;;18.20;6.18;;;;;;;3.04;84.82;100782.13;8168363;35;20192;-75
2022/01/19 22:16:30;;;;;;;18.05;6.13;;;;;;;3.24;82.92;100798.06;8171724;35;20155;-76
2022/01/19 22:21:33;;;;;;;14.73;5.15;;;;;;;3.35;82.47;100813.53;8167737;35;20191;-76
2022/01/19 22:26:38;;;;;;;17.08;4.50;;;;;;;3.04;82.74;100819.28;8168643;35;20250;-76
2022/01/19 22:31:41;;;;;;;16.42;5.05;;;;;;;3.04;82.55;100821.94;8168446;35;20278;-76
2022/01/19 22:36:45;;;;;;;18.65;5.32;;;;;;;2.70;84.15;100818.06;8169226;35;20167;-76
2022/01/19 22:41:54;;;;;;;14.52;5.28;;;;;;;2.76;83.26;100815.16;8168098;35;20184;-76
2022/01/19 22:46:58;;;;;;;10.90;3.75;;;;;;;2.63;83.49;100824.53;8168587;35;20245;-76
2022/01/19 22:52:01;;;;;;;26.85;5.95;;;;;;;2.30;84.77;100826.72;8183041;35;22646;-76
2022/01/19 22:57:06;;;;;;;7.43;3.22;;;;;;;2.21;84.96;100835.91;8167715;35;20144;-76
2022/01/19 23:02:09;;;;;;;22.75;4.95;;;;;;;2.39;84.64;100848.47;8167646;35;20762;-76
2022/01/19 23:07:12;;;;;;;14.90;4.20;;;;;;;2.24;85.06;100837.59;8188009;35;20156;-75
2022/01/19 23:12:17;;;;;;;15.95;4.22;;;;;;;2.18;84.70;100844.00;8168938;35;20772;-75
2022/01/19 23:17:20;;;;;;;13.00;4.43;;;;;;;2.13;84.74;100854.75;8168387;35;20290;-76
2022/01/19 23:22:23;;;;;;;17.23;4.40;;;;;;;2.04;84.82;100863.06;8187720;35;20612;-76
2022/01/19 23:27:30;;;;;;;16.52;3.97;;;;;;;2.25;84.39;100849.91;8168153;35;20681;-76
2022/01/19 23:32:40;;;;;;;20.20;5.22;;;;;;;1.94;84.15;100848.44;8167994;35;20949;-76
2022/01/19 23:38:00;;;;;;;21.10;5.32;;;;;;;1.84;84.35;100847.94;8168127;35;20184;-76
2022/01/19 23:48:25;;;;;;;18.13;5.15;;;;;;;2.09;82.12;100861.13;8168253;35;20164;-76
2022/01/19 23:53:28;;;;;;;24.90;4.47;;;;;;;1.95;82.29;100861.66;8187713;35;20609;-76
2022/01/19 23:58:36;;;;;;;9.40;3.45;;;;;;;2.00;81.72;100853.50;8168217;35;20172;-75
